sensor_id;sensor_type;location;lat;lon;timestamp;P1;durP1;ratioP1;P2;durP2;ratioP2
31336;SDS011;22846;42.654;23.314;2023-10-13T00:00:32;21.63;;;10.60;;
31336;SDS011;22846;42.654;23.314;2023-10-13T00:03:01;16.92;;;9.40;;
31336;SDS011;22846;42.654;23.314;2023-10-13T00:05:28;15.85;;;8.02;;
31336;SDS011;22846;42.654;23.314;2023-10-13T00:08:01;18.42;;;10.05;;
31336;SDS011;22846;42.654;23.314;2023-10-13T00:10:28;18.02;;;9.82;;
31336;SDS011;22846;42.654;23.314;2023-10-13T00:12:58;19.23;;;9.27;;
31336;SDS011;22846;42.654;23.314;2023-10-13T00:15:40;18.67;;;8.88;;
31336;SDS011;22846;42.654;23.314;2023-10-13T00:18:11;17.58;;;9.10;;
31336;SDS011;22846;42.654;23.314;2023-10-13T00:20:43;13.10;;;8.10;;
31336;SDS011;22846;42.654;23.314;2023-10-13T00:23:15;13.93;;;8.15;;
31336;SDS011;22846;42.654;23.314;2023-10-13T00:25:50;15.38;;;8.35;;
31336;SDS011;22846;42.654;23.314;2023-10-13T00:28:22;17.00;;;8.45;;
31336;SDS011;22846;42.654;23.314;2023-10-13T00:31:00;14.70;;;8.30;;
31336;SDS011;22846;42.654;23.314;2023-10-13T00:33:35;16.02;;;8.35;;
31336;SDS011;22846;42.654;23.314;2023-10-13T00:36:03;14.35;;;8.00;;
31336;SDS011;22846;42.654;23.314;2023-10-13T00:38:30;14.20;;;7.97;;
31336;SDS011;22846;42.654;23.314;2023-10-13T00:40:55;13.70;;;8.13;;
31336;SDS011;22846;42.654;23.314;2023-10-13T00:43:22;15.45;;;8.00;;
31336;SDS011;22846;42.654;23.314;2023-10-13T00:48:24;13.38;;;7.97;;
31336;SDS011;22846;42.654;23.314;2023-10-13T00:50:57;14.23;;;7.20;;
31336;SDS011;22846;42.654;23.314;2023-10-13T00:53:27;13.27;;;7.88;;
31336;SDS011;22846;42.654;23.314;2023-10-13T00:55:54;14.10;;;7.97;;
31336;SDS011;22846;42.654;23.314;2023-10-13T00:58:23;13.50;;;7.43;;
31336;SDS011;22846;42.654;23.314;2023-10-13T01:00:50;14.60;;;8.43;;
31336;SDS011;22846;42.654;23.314;2023-10-13T01:03:22;12.85;;;7.47;;
31336;SDS011;22846;42.654;23.314;2023-10-13T01:05:52;10.88;;;6.72;;
31336;SDS011;22846;42.654;23.314;2023-10-13T01:08:30;12.77;;;6.63;;
31336;SDS011;22846;42.654;23.314;2023-10-13T01:10:59;12.00;;;7.38;;
31336;SDS011;22846;42.654;23.314;2023-10-13T01:13:25;11.45;;;6.65;;
31336;SDS011;22846;42.654;23.314;2023-10-13T01:15:52;13.95;;;7.22;;
31336;SDS011;22846;42.654;23.314;2023-10-13T01:18:17;13.32;;;7.53;;
31336;SDS011;22846;42.654;23.314;2023-10-13T01:20:43;12.20;;;6.93;;
31336;SDS011;22846;42.654;23.314;2023-10-13T01:23:17;12.50;;;7.30;;
31336;SDS011;22846;42.654;23.314;2023-10-13T01:25:49;12.15;;;6.70;;
31336;SDS011;22846;42.654;23.314;2023-10-13T01:28:15;11.43;;;6.47;;
31336;SDS011;22846;42.654;23.314;2023-10-13T01:30:42;10.65;;;5.93;;
31336;SDS011;22846;42.654;23.314;2023-10-13T01:33:09;11.00;;;6.20;;
31336;SDS011;22846;42.654;23.314;2023-10-13T01:35:36;13.70;;;6.85;;
31336;SDS011;22846;42.654;23.314;2023-10-13T01:38:06;12.63;;;7.60;;
31336;SDS011;22846;42.654;23.314;2023-10-13T01:40:32;10.68;;;6.68;;
31336;SDS011;22846;42.654;23.314;2023-10-13T01:43:00;10.77;;;6.70;;
31336;SDS011;22846;42.654;23.314;2023-10-13T01:45:26;10.23;;;6.72;;
31336;SDS011;22846;42.654;23.314;2023-10-13T01:47:54;10.55;;;6.45;;
31336;SDS011;22846;42.654;23.314;2023-10-13T01:50:20;11.02;;;5.93;;
31336;SDS011;22846;42.654;23.314;2023-10-13T01:52:54;10.18;;;6.60;;
31336;SDS011;22846;42.654;23.314;2023-10-13T01:55:30;9.48;;;6.18;;
31336;SDS011;22846;42.654;23.314;2023-10-13T01:58:01;9.88;;;5.68;;
31336;SDS011;22846;42.654;23.314;2023-10-13T02:00:26;9.55;;;6.10;;
31336;SDS011;22846;42.654;23.314;2023-10-13T02:02:56;9.48;;;6.10;;
31336;SDS011;22846;42.654;23.314;2023-10-13T02:05:25;9.15;;;5.43;;
31336;SDS011;22846;42.654;23.314;2023-10-13T02:07:58;9.05;;;5.93;;
31336;SDS011;22846;42.654;23.314;2023-10-13T02:10:32;8.32;;;5.30;;
31336;SDS011;22846;42.654;23.314;2023-10-13T02:12:58;8.98;;;6.30;;
31336;SDS011;22846;42.654;23.314;2023-10-13T02:15:23;10.63;;;6.55;;
31336;SDS011;22846;42.654;23.314;2023-10-13T02:17:51;9.20;;;5.45;;
31336;SDS011;22846;42.654;23.314;2023-10-13T02:20:19;8.80;;;5.15;;
31336;SDS011;22846;42.654;23.314;2023-10-13T02:22:48;7.18;;;4.88;;
31336;SDS011;22846;42.654;23.314;2023-10-13T02:25:17;9.05;;;5.22;;
31336;SDS011;22846;42.654;23.314;2023-10-13T02:28:00;7.05;;;4.38;;
31336;SDS011;22846;42.654;23.314;2023-10-13T02:30:26;8.15;;;5.72;;
31336;SDS011;22846;42.654;23.314;2023-10-13T02:32:51;8.52;;;4.93;;
31336;SDS011;22846;42.654;23.314;2023-10-13T02:35:18;8.30;;;5.45;;
31336;SDS011;22846;42.654;23.314;2023-10-13T02:37:47;6.78;;;4.63;;
31336;SDS011;22846;42.654;23.314;2023-10-13T02:40:19;6.90;;;4.72;;
31336;SDS011;22846;42.654;23.314;2023-10-13T02:42:48;7.22;;;4.63;;
31336;SDS011;22846;42.654;23.314;2023-10-13T02:45:13;7.50;;;4.80;;
31336;SDS011;22846;42.654;23.314;2023-10-13T02:47:39;8.40;;;4.90;;
31336;SDS011;22846;42.654;23.314;2023-10-13T02:50:05;6.55;;;4.63;;
31336;SDS011;22846;42.654;23.314;2023-10-13T02:52:37;6.80;;;4.70;;
31336;SDS011;22846;42.654;23.314;2023-10-13T02:55:06;8.43;;;5.03;;
31336;SDS011;22846;42.654;23.314;2023-10-13T02:57:35;6.38;;;4.53;;
31336;SDS011;22846;42.654;23.314;2023-10-13T03:00:00;7.25;;;5.30;;
31336;SDS011;22846;42.654;23.314;2023-10-13T03:02:37;7.55;;;5.03;;
31336;SDS011;22846;42.654;23.314;2023-10-13T03:05:09;6.38;;;4.60;;
31336;SDS011;22846;42.654;23.314;2023-10-13T03:07:34;7.75;;;4.22;;
31336;SDS011;22846;42.654;23.314;2023-10-13T03:10:01;7.45;;;5.53;;
31336;SDS011;22846;42.654;23.314;2023-10-13T03:12:35;7.22;;;4.47;;
31336;SDS011;22846;42.654;23.314;2023-10-13T03:15:01;8.07;;;4.20;;
31336;SDS011;22846;42.654;23.314;2023-10-13T03:17:38;8.07;;;4.70;;
31336;SDS011;22846;42.654;23.314;2023-10-13T03:20:08;6.95;;;4.65;;
31336;SDS011;22846;42.654;23.314;2023-10-13T03:22:47;9.05;;;5.10;;
31336;SDS011;22846;42.654;23.314;2023-10-13T03:25:17;6.35;;;4.22;;
31336;SDS011;22846;42.654;23.314;2023-10-13T03:27:54;8.00;;;5.03;;
31336;SDS011;22846;42.654;23.314;2023-10-13T03:30:23;7.65;;;4.57;;
31336;SDS011;22846;42.654;23.314;2023-10-13T03:32:55;6.53;;;4.55;;
31336;SDS011;22846;42.654;23.314;2023-10-13T03:35:21;4.78;;;3.67;;
31336;SDS011;22846;42.654;23.314;2023-10-13T03:37:51;6.93;;;4.70;;
31336;SDS011;22846;42.654;23.314;2023-10-13T03:40:17;8.63;;;5.55;;
31336;SDS011;22846;42.654;23.314;2023-10-13T03:42:47;6.85;;;4.85;;
31336;SDS011;22846;42.654;23.314;2023-10-13T03:45:37;7.38;;;4.45;;
31336;SDS011;22846;42.654;23.314;2023-10-13T03:48:07;7.75;;;4.90;;
31336;SDS011;22846;42.654;23.314;2023-10-13T03:51:00;6.32;;;4.38;;
31336;SDS011;22846;42.654;23.314;2023-10-13T03:53:33;7.57;;;4.82;;
31336;SDS011;22846;42.654;23.314;2023-10-13T03:56:00;6.82;;;4.60;;
31336;SDS011;22846;42.654;23.314;2023-10-13T03:58:51;7.18;;;4.97;;
31336;SDS011;22846;42.654;23.314;2023-10-13T04:01:19;5.65;;;3.78;;
31336;SDS011;22846;42.654;23.314;2023-10-13T04:03:59;5.57;;;3.38;;
31336;SDS011;22846;42.654;23.314;2023-10-13T04:06:32;4.68;;;3.38;;
31336;SDS011;22846;42.654;23.314;2023-10-13T04:09:20;9.43;;;3.92;;
31336;SDS011;22846;42.654;23.314;2023-10-13T04:12:05;7.20;;;4.05;;
31336;SDS011;22846;42.654;23.314;2023-10-13T04:14:38;4.78;;;3.90;;
31336;SDS011;22846;42.654;23.314;2023-10-13T04:17:30;7.07;;;4.68;;
31336;SDS011;22846;42.654;23.314;2023-10-13T04:20:05;7.30;;;4.25;;
31336;SDS011;22846;42.654;23.314;2023-10-13T04:22:31;8.45;;;4.63;;
31336;SDS011;22846;42.654;23.314;2023-10-13T04:27:55;13.55;;;4.80;;
31336;SDS011;22846;42.654;23.314;2023-10-13T04:33:32;13.75;;;4.93;;
31336;SDS011;22846;42.654;23.314;2023-10-13T04:36:09;59.75;;;14.48;;
31336;SDS011;22846;42.654;23.314;2023-10-13T04:38:52;54.20;;;10.90;;
31336;SDS011;22846;42.654;23.314;2023-10-13T04:41:25;37.80;;;10.48;;
31336;SDS011;22846;42.654;23.314;2023-10-13T04:44:09;38.35;;;9.27;;
31336;SDS011;22846;42.654;23.314;2023-10-13T04:46:54;49.35;;;13.23;;
31336;SDS011;22846;42.654;23.314;2023-10-13T04:49:26;46.55;;;14.57;;
31336;SDS011;22846;42.654;23.314;2023-10-13T04:51:54;59.17;;;16.30;;
31336;SDS011;22846;42.654;23.314;2023-10-13T04:54:37;56.83;;;17.73;;
31336;SDS011;22846;42.654;23.314;2023-10-13T04:57:19;58.38;;;17.83;;
31336;SDS011;22846;42.654;23.314;2023-10-13T04:59:59;54.78;;;17.45;;
31336;SDS011;22846;42.654;23.314;2023-10-13T05:02:28;52.25;;;15.40;;
31336;SDS011;22846;42.654;23.314;2023-10-13T05:05:01;62.50;;;17.05;;
31336;SDS011;22846;42.654;23.314;2023-10-13T05:07:39;45.95;;;14.13;;
31336;SDS011;22846;42.654;23.314;2023-10-13T05:10:24;47.25;;;14.45;;
31336;SDS011;22846;42.654;23.314;2023-10-13T05:13:08;42.40;;;13.90;;
31336;SDS011;22846;42.654;23.314;2023-10-13T05:15:52;36.15;;;12.30;;
31336;SDS011;22846;42.654;23.314;2023-10-13T05:18:36;38.67;;;14.07;;
31336;SDS011;22846;42.654;23.314;2023-10-13T05:21:20;25.23;;;9.35;;
31336;SDS011;22846;42.654;23.314;2023-10-13T05:24:04;32.20;;;9.88;;
31336;SDS011;22846;42.654;23.314;2023-10-13T05:26:49;29.48;;;9.27;;
31336;SDS011;22846;42.654;23.314;2023-10-13T05:29:33;27.05;;;9.38;;
31336;SDS011;22846;42.654;23.314;2023-10-13T05:32:17;34.05;;;10.20;;
31336;SDS011;22846;42.654;23.314;2023-10-13T05:35:02;25.15;;;9.90;;
31336;SDS011;22846;42.654;23.314;2023-10-13T05:37:46;33.20;;;10.90;;
31336;SDS011;22846;42.654;23.314;2023-10-13T05:40:30;36.25;;;9.90;;
31336;SDS011;22846;42.654;23.314;2023-10-13T05:43:14;24.90;;;10.13;;
31336;SDS011;22846;42.654;23.314;2023-10-13T05:46:01;24.15;;;9.60;;
31336;SDS011;22846;42.654;23.314;2023-10-13T05:48:47;27.05;;;11.80;;
31336;SDS011;22846;42.654;23.314;2023-10-13T05:51:28;41.28;;;14.63;;
31336;SDS011;22846;42.654;23.314;2023-10-13T05:54:08;23.35;;;10.55;;
31336;SDS011;22846;42.654;23.314;2023-10-13T05:56:44;18.48;;;10.10;;
31336;SDS011;22846;42.654;23.314;2023-10-13T05:59:43;22.58;;;9.57;;
31336;SDS011;22846;42.654;23.314;2023-10-13T06:02:27;20.52;;;8.88;;
31336;SDS011;22846;42.654;23.314;2023-10-13T06:05:11;16.05;;;8.18;;
31336;SDS011;22846;42.654;23.314;2023-10-13T06:07:56;15.50;;;8.80;;
31336;SDS011;22846;42.654;23.314;2023-10-13T06:10:41;22.20;;;8.85;;
31336;SDS011;22846;42.654;23.314;2023-10-13T06:13:25;15.63;;;7.95;;
31336;SDS011;22846;42.654;23.314;2023-10-13T06:16:10;11.95;;;7.82;;
31336;SDS011;22846;42.654;23.314;2023-10-13T06:18:56;12.20;;;7.47;;
31336;SDS011;22846;42.654;23.314;2023-10-13T06:21:41;12.82;;;7.30;;
31336;SDS011;22846;42.654;23.314;2023-10-13T06:24:26;12.82;;;6.57;;
31336;SDS011;22846;42.654;23.314;2023-10-13T06:27:10;11.23;;;6.88;;
31336;SDS011;22846;42.654;23.314;2023-10-13T06:29:54;14.68;;;7.20;;
31336;SDS011;22846;42.654;23.314;2023-10-13T06:32:20;13.07;;;6.72;;
31336;SDS011;22846;42.654;23.314;2023-10-13T06:34:50;11.88;;;6.60;;
31336;SDS011;22846;42.654;23.314;2023-10-13T06:37:26;10.60;;;6.65;;
31336;SDS011;22846;42.654;23.314;2023-10-13T06:39:55;9.98;;;6.13;;
31336;SDS011;22846;42.654;23.314;2023-10-13T06:42:28;9.50;;;6.00;;
31336;SDS011;22846;42.654;23.314;2023-10-13T06:44:54;16.33;;;6.93;;
31336;SDS011;22846;42.654;23.314;2023-10-13T06:47:20;13.60;;;6.60;;
31336;SDS011;22846;42.654;23.314;2023-10-13T06:49:46;13.57;;;6.63;;
31336;SDS011;22846;42.654;23.314;2023-10-13T06:52:16;12.20;;;6.03;;
31336;SDS011;22846;42.654;23.314;2023-10-13T06:54:42;14.88;;;6.75;;
31336;SDS011;22846;42.654;23.314;2023-10-13T06:57:08;12.60;;;5.97;;
31336;SDS011;22846;42.654;23.314;2023-10-13T06:59:39;10.05;;;6.32;;
31336;SDS011;22846;42.654;23.314;2023-10-13T07:02:05;13.15;;;6.28;;
31336;SDS011;22846;42.654;23.314;2023-10-13T07:04:34;10.07;;;5.63;;
31336;SDS011;22846;42.654;23.314;2023-10-13T07:07:04;10.85;;;5.78;;
31336;SDS011;22846;42.654;23.314;2023-10-13T07:09:35;10.02;;;5.97;;
31336;SDS011;22846;42.654;23.314;2023-10-13T07:12:01;11.30;;;5.72;;
31336;SDS011;22846;42.654;23.314;2023-10-13T07:14:44;10.77;;;6.00;;
31336;SDS011;22846;42.654;23.314;2023-10-13T07:17:16;10.15;;;6.20;;
31336;SDS011;22846;42.654;23.314;2023-10-13T07:19:48;21.88;;;11.85;;
31336;SDS011;22846;42.654;23.314;2023-10-13T07:22:18;26.17;;;12.35;;
31336;SDS011;22846;42.654;23.314;2023-10-13T07:24:47;31.65;;;12.77;;
31336;SDS011;22846;42.654;23.314;2023-10-13T07:27:15;21.25;;;11.88;;
31336;SDS011;22846;42.654;23.314;2023-10-13T07:29:55;24.13;;;11.68;;
31336;SDS011;22846;42.654;23.314;2023-10-13T07:32:24;28.80;;;12.18;;
31336;SDS011;22846;42.654;23.314;2023-10-13T07:34:54;37.03;;;12.90;;
31336;SDS011;22846;42.654;23.314;2023-10-13T07:37:23;36.97;;;12.50;;
31336;SDS011;22846;42.654;23.314;2023-10-13T07:39:54;34.10;;;13.07;;
31336;SDS011;22846;42.654;23.314;2023-10-13T07:42:23;27.15;;;11.95;;
31336;SDS011;22846;42.654;23.314;2023-10-13T07:44:55;29.05;;;12.43;;
31336;SDS011;22846;42.654;23.314;2023-10-13T07:47:21;29.45;;;12.32;;
31336;SDS011;22846;42.654;23.314;2023-10-13T07:49:49;23.15;;;10.55;;
31336;SDS011;22846;42.654;23.314;2023-10-13T07:52:15;20.48;;;9.38;;
31336;SDS011;22846;42.654;23.314;2023-10-13T07:54:44;44.63;;;21.42;;
31336;SDS011;22846;42.654;23.314;2023-10-13T07:57:21;29.48;;;14.85;;
31336;SDS011;22846;42.654;23.314;2023-10-13T07:59:54;28.42;;;12.00;;
31336;SDS011;22846;42.654;23.314;2023-10-13T08:02:31;26.35;;;11.95;;
31336;SDS011;22846;42.654;23.314;2023-10-13T08:05:16;31.92;;;11.35;;
31336;SDS011;22846;42.654;23.314;2023-10-13T08:08:01;24.02;;;10.85;;
31336;SDS011;22846;42.654;23.314;2023-10-13T08:10:34;32.35;;;10.93;;
31336;SDS011;22846;42.654;23.314;2023-10-13T08:13:01;19.15;;;10.23;;
31336;SDS011;22846;42.654;23.314;2023-10-13T08:15:26;31.13;;;9.70;;
31336;SDS011;22846;42.654;23.314;2023-10-13T08:17:59;20.63;;;9.23;;
31336;SDS011;22846;42.654;23.314;2023-10-13T08:20:29;18.35;;;9.15;;
31336;SDS011;22846;42.654;23.314;2023-10-13T08:22:55;18.23;;;8.73;;
31336;SDS011;22846;42.654;23.314;2023-10-13T08:25:38;20.90;;;8.93;;
31336;SDS011;22846;42.654;23.314;2023-10-13T08:28:22;15.77;;;8.30;;
31336;SDS011;22846;42.654;23.314;2023-10-13T08:31:11;15.05;;;8.02;;
31336;SDS011;22846;42.654;23.314;2023-10-13T08:33:47;15.32;;;7.85;;
31336;SDS011;22846;42.654;23.314;2023-10-13T08:36:13;15.13;;;7.65;;
31336;SDS011;22846;42.654;23.314;2023-10-13T08:38:55;16.02;;;7.93;;
31336;SDS011;22846;42.654;23.314;2023-10-13T08:41:24;17.60;;;7.28;;
31336;SDS011;22846;42.654;23.314;2023-10-13T08:43:50;15.82;;;7.38;;
31336;SDS011;22846;42.654;23.314;2023-10-13T08:46:16;15.20;;;7.03;;
31336;SDS011;22846;42.654;23.314;2023-10-13T08:48:57;11.90;;;7.68;;
31336;SDS011;22846;42.654;23.314;2023-10-13T08:51:35;14.85;;;7.07;;
31336;SDS011;22846;42.654;23.314;2023-10-13T08:54:30;11.85;;;7.00;;
31336;SDS011;22846;42.654;23.314;2023-10-13T08:57:04;16.63;;;7.47;;
31336;SDS011;22846;42.654;23.314;2023-10-13T08:59:55;11.48;;;6.65;;
31336;SDS011;22846;42.654;23.314;2023-10-13T09:02:23;9.57;;;6.68;;
31336;SDS011;22846;42.654;23.314;2023-10-13T09:05:08;10.02;;;6.47;;
31336;SDS011;22846;42.654;23.314;2023-10-13T09:07:54;14.27;;;6.95;;
31336;SDS011;22846;42.654;23.314;2023-10-13T09:10:24;11.55;;;7.10;;
31336;SDS011;22846;42.654;23.314;2023-10-13T09:12:58;14.00;;;6.68;;
31336;SDS011;22846;42.654;23.314;2023-10-13T09:15:30;13.15;;;7.13;;
31336;SDS011;22846;42.654;23.314;2023-10-13T09:18:25;11.88;;;6.47;;
31336;SDS011;22846;42.654;23.314;2023-10-13T09:21:10;11.40;;;6.47;;
31336;SDS011;22846;42.654;23.314;2023-10-13T09:23:58;7.43;;;5.75;;
31336;SDS011;22846;42.654;23.314;2023-10-13T09:26:44;11.02;;;6.30;;
31336;SDS011;22846;42.654;23.314;2023-10-13T09:29:17;9.05;;;5.90;;
31336;SDS011;22846;42.654;23.314;2023-10-13T09:31:44;10.73;;;6.18;;
31336;SDS011;22846;42.654;23.314;2023-10-13T09:34:19;10.07;;;6.45;;
31336;SDS011;22846;42.654;23.314;2023-10-13T09:36:49;9.68;;;6.00;;
31336;SDS011;22846;42.654;23.314;2023-10-13T09:39:21;11.65;;;5.93;;
31336;SDS011;22846;42.654;23.314;2023-10-13T09:41:56;9.38;;;5.85;;
31336;SDS011;22846;42.654;23.314;2023-10-13T09:44:24;9.50;;;6.10;;
31336;SDS011;22846;42.654;23.314;2023-10-13T09:46:55;9.75;;;5.68;;
31336;SDS011;22846;42.654;23.314;2023-10-13T09:49:28;9.80;;;5.95;;
31336;SDS011;22846;42.654;23.314;2023-10-13T09:52:10;11.57;;;5.80;;
31336;SDS011;22846;42.654;23.314;2023-10-13T09:54:44;9.23;;;5.80;;
31336;SDS011;22846;42.654;23.314;2023-10-13T09:57:25;8.38;;;5.80;;
31336;SDS011;22846;42.654;23.314;2023-10-13T10:00:06;8.55;;;5.57;;
31336;SDS011;22846;42.654;23.314;2023-10-13T10:02:57;8.93;;;5.22;;
31336;SDS011;22846;42.654;23.314;2023-10-13T10:05:25;9.10;;;5.85;;
31336;SDS011;22846;42.654;23.314;2023-10-13T10:07:54;10.73;;;5.90;;
31336;SDS011;22846;42.654;23.314;2023-10-13T10:10:26;9.15;;;5.07;;
31336;SDS011;22846;42.654;23.314;2023-10-13T10:13:15;8.23;;;5.53;;
31336;SDS011;22846;42.654;23.314;2023-10-13T10:15:51;7.85;;;5.07;;
31336;SDS011;22846;42.654;23.314;2023-10-13T10:18:20;7.07;;;5.22;;
31336;SDS011;22846;42.654;23.314;2023-10-13T10:20:47;8.05;;;5.45;;
31336;SDS011;22846;42.654;23.314;2023-10-13T10:23:26;7.75;;;4.97;;
31336;SDS011;22846;42.654;23.314;2023-10-13T10:26:08;9.20;;;5.22;;
31336;SDS011;22846;42.654;23.314;2023-10-13T10:28:39;9.70;;;5.22;;
31336;SDS011;22846;42.654;23.314;2023-10-13T10:31:09;7.18;;;4.85;;
31336;SDS011;22846;42.654;23.314;2023-10-13T10:33:47;6.60;;;4.75;;
31336;SDS011;22846;42.654;23.314;2023-10-13T10:36:15;8.07;;;5.05;;
31336;SDS011;22846;42.654;23.314;2023-10-13T10:38:55;7.82;;;4.82;;
31336;SDS011;22846;42.654;23.314;2023-10-13T10:41:25;7.05;;;4.85;;
31336;SDS011;22846;42.654;23.314;2023-10-13T10:44:18;7.07;;;4.43;;
31336;SDS011;22846;42.654;23.314;2023-10-13T10:47:11;6.63;;;4.93;;
31336;SDS011;22846;42.654;23.314;2023-10-13T10:49:44;7.80;;;5.30;;
31336;SDS011;22846;42.654;23.314;2023-10-13T10:52:11;6.30;;;4.43;;
31336;SDS011;22846;42.654;23.314;2023-10-13T10:54:43;6.30;;;4.40;;
31336;SDS011;22846;42.654;23.314;2023-10-13T10:57:09;6.65;;;4.40;;
31336;SDS011;22846;42.654;23.314;2023-10-13T11:02:08;7.28;;;5.03;;
31336;SDS011;22846;42.654;23.314;2023-10-13T11:04:40;5.55;;;4.50;;
31336;SDS011;22846;42.654;23.314;2023-10-13T11:07:20;7.30;;;4.50;;
31336;SDS011;22846;42.654;23.314;2023-10-13T11:09:49;5.88;;;4.40;;
31336;SDS011;22846;42.654;23.314;2023-10-13T11:12:18;5.97;;;4.43;;
31336;SDS011;22846;42.654;23.314;2023-10-13T11:15:04;5.28;;;4.10;;
31336;SDS011;22846;42.654;23.314;2023-10-13T11:17:50;6.28;;;4.38;;
31336;SDS011;22846;42.654;23.314;2023-10-13T11:20:20;5.20;;;3.63;;
31336;SDS011;22846;42.654;23.314;2023-10-13T11:23:15;5.78;;;4.07;;
31336;SDS011;22846;42.654;23.314;2023-10-13T11:25:41;5.70;;;4.03;;
31336;SDS011;22846;42.654;23.314;2023-10-13T11:28:13;5.93;;;4.13;;
31336;SDS011;22846;42.654;23.314;2023-10-13T11:30:43;5.78;;;3.90;;
31336;SDS011;22846;42.654;23.314;2023-10-13T11:33:14;5.55;;;4.00;;
31336;SDS011;22846;42.654;23.314;2023-10-13T11:35:48;4.90;;;3.90;;
31336;SDS011;22846;42.654;23.314;2023-10-13T11:38:14;4.60;;;3.67;;
31336;SDS011;22846;42.654;23.314;2023-10-13T11:40:41;6.53;;;4.05;;
31336;SDS011;22846;42.654;23.314;2023-10-13T11:43:10;4.30;;;3.90;;
31336;SDS011;22846;42.654;23.314;2023-10-13T11:45:39;4.95;;;3.83;;
31336;SDS011;22846;42.654;23.314;2023-10-13T11:48:38;5.50;;;3.70;;
31336;SDS011;22846;42.654;23.314;2023-10-13T11:51:07;5.05;;;3.63;;
31336;SDS011;22846;42.654;23.314;2023-10-13T11:53:42;4.93;;;3.75;;
31336;SDS011;22846;42.654;23.314;2023-10-13T11:56:17;5.15;;;3.65;;
31336;SDS011;22846;42.654;23.314;2023-10-13T11:58:46;4.85;;;3.55;;
31336;SDS011;22846;42.654;23.314;2023-10-13T12:01:12;4.85;;;3.78;;
31336;SDS011;22846;42.654;23.314;2023-10-13T12:03:47;4.25;;;3.70;;
31336;SDS011;22846;42.654;23.314;2023-10-13T12:06:33;5.10;;;3.30;;
31336;SDS011;22846;42.654;23.314;2023-10-13T12:09:03;3.95;;;3.22;;
31336;SDS011;22846;42.654;23.314;2023-10-13T12:11:39;4.55;;;3.30;;
31336;SDS011;22846;42.654;23.314;2023-10-13T12:14:07;4.65;;;3.70;;
31336;SDS011;22846;42.654;23.314;2023-10-13T12:16:49;4.70;;;3.65;;
31336;SDS011;22846;42.654;23.314;2023-10-13T12:19:17;4.68;;;3.38;;
31336;SDS011;22846;42.654;23.314;2023-10-13T12:21:48;5.07;;;3.47;;
31336;SDS011;22846;42.654;23.314;2023-10-13T12:24:14;3.85;;;3.00;;
31336;SDS011;22846;42.654;23.314;2023-10-13T12:26:58;4.78;;;3.30;;
31336;SDS011;22846;42.654;23.314;2023-10-13T12:29:24;5.38;;;3.33;;
31336;SDS011;22846;42.654;23.314;2023-10-13T12:31:56;4.30;;;3.20;;
31336;SDS011;22846;42.654;23.314;2023-10-13T12:34:36;5.25;;;3.45;;
31336;SDS011;22846;42.654;23.314;2023-10-13T12:37:31;4.03;;;2.97;;
31336;SDS011;22846;42.654;23.314;2023-10-13T12:40:16;3.83;;;3.08;;
31336;SDS011;22846;42.654;23.314;2023-10-13T12:43:02;3.50;;;2.70;;
31336;SDS011;22846;42.654;23.314;2023-10-13T12:45:47;3.60;;;3.03;;
31336;SDS011;22846;42.654;23.314;2023-10-13T12:48:33;4.30;;;3.22;;
31336;SDS011;22846;42.654;23.314;2023-10-13T12:51:18;4.10;;;3.40;;
31336;SDS011;22846;42.654;23.314;2023-10-13T12:54:09;4.47;;;3.20;;
31336;SDS011;22846;42.654;23.314;2023-10-13T12:56:43;3.97;;;3.10;;
31336;SDS011;22846;42.654;23.314;2023-10-13T12:59:09;3.70;;;3.08;;
31336;SDS011;22846;42.654;23.314;2023-10-13T13:01:38;3.42;;;2.85;;
31336;SDS011;22846;42.654;23.314;2023-10-13T13:04:07;3.38;;;2.67;;
31336;SDS011;22846;42.654;23.314;2023-10-13T13:06:36;3.88;;;2.90;;
31336;SDS011;22846;42.654;23.314;2023-10-13T13:09:02;3.42;;;2.67;;
31336;SDS011;22846;42.654;23.314;2023-10-13T13:11:28;3.47;;;2.80;;
31336;SDS011;22846;42.654;23.314;2023-10-13T13:13:56;3.72;;;2.83;;
31336;SDS011;22846;42.654;23.314;2023-10-13T13:16:22;3.20;;;2.85;;
31336;SDS011;22846;42.654;23.314;2023-10-13T13:18:50;3.10;;;2.60;;
31336;SDS011;22846;42.654;23.314;2023-10-13T13:21:16;3.40;;;2.65;;
31336;SDS011;22846;42.654;23.314;2023-10-13T13:23:52;2.97;;;2.55;;
31336;SDS011;22846;42.654;23.314;2023-10-13T13:26:20;3.83;;;2.60;;
31336;SDS011;22846;42.654;23.314;2023-10-13T13:28:47;3.00;;;2.67;;
31336;SDS011;22846;42.654;23.314;2023-10-13T13:31:16;3.40;;;2.75;;
31336;SDS011;22846;42.654;23.314;2023-10-13T13:33:42;3.17;;;2.47;;
31336;SDS011;22846;42.654;23.314;2023-10-13T13:36:11;3.78;;;2.50;;
31336;SDS011;22846;42.654;23.314;2023-10-13T13:38:41;2.97;;;2.43;;
31336;SDS011;22846;42.654;23.314;2023-10-13T13:41:13;3.40;;;2.92;;
31336;SDS011;22846;42.654;23.314;2023-10-13T13:43:50;2.97;;;2.47;;
31336;SDS011;22846;42.654;23.314;2023-10-13T13:46:19;3.88;;;2.33;;
31336;SDS011;22846;42.654;23.314;2023-10-13T13:48:50;3.22;;;2.65;;
31336;SDS011;22846;42.654;23.314;2023-10-13T13:51:16;2.90;;;2.58;;
31336;SDS011;22846;42.654;23.314;2023-10-13T13:53:51;2.53;;;2.30;;
31336;SDS011;22846;42.654;23.314;2023-10-13T13:56:17;2.85;;;2.30;;
31336;SDS011;22846;42.654;23.314;2023-10-13T13:58:47;3.03;;;2.30;;
31336;SDS011;22846;42.654;23.314;2023-10-13T14:01:15;2.60;;;2.40;;
31336;SDS011;22846;42.654;23.314;2023-10-13T14:03:43;3.15;;;2.55;;
31336;SDS011;22846;42.654;23.314;2023-10-13T14:06:23;2.50;;;2.30;;
31336;SDS011;22846;42.654;23.314;2023-10-13T14:08:52;3.22;;;2.67;;
31336;SDS011;22846;42.654;23.314;2023-10-13T14:11:24;2.47;;;2.20;;
31336;SDS011;22846;42.654;23.314;2023-10-13T14:14:15;2.83;;;2.22;;
31336;SDS011;22846;42.654;23.314;2023-10-13T14:16:50;2.67;;;2.33;;
31336;SDS011;22846;42.654;23.314;2023-10-13T14:19:15;2.38;;;2.17;;
31336;SDS011;22846;42.654;23.314;2023-10-13T14:21:56;2.83;;;2.03;;
31336;SDS011;22846;42.654;23.314;2023-10-13T14:24:22;3.47;;;2.63;;
31336;SDS011;22846;42.654;23.314;2023-10-13T14:27:08;2.53;;;2.33;;
31336;SDS011;22846;42.654;23.314;2023-10-13T14:29:37;2.78;;;2.28;;
31336;SDS011;22846;42.654;23.314;2023-10-13T14:32:06;2.45;;;2.13;;
31336;SDS011;22846;42.654;23.314;2023-10-13T14:34:37;3.90;;;2.40;;
31336;SDS011;22846;42.654;23.314;2023-10-13T14:37:03;2.63;;;2.20;;
31336;SDS011;22846;42.654;23.314;2023-10-13T14:39:30;2.80;;;2.30;;
31336;SDS011;22846;42.654;23.314;2023-10-13T14:41:55;3.13;;;2.15;;
31336;SDS011;22846;42.654;23.314;2023-10-13T14:44:21;2.88;;;2.20;;
31336;SDS011;22846;42.654;23.314;2023-10-13T14:46:51;2.22;;;1.92;;
31336;SDS011;22846;42.654;23.314;2023-10-13T14:49:21;2.22;;;2.03;;
31336;SDS011;22846;42.654;23.314;2023-10-13T14:51:46;2.25;;;1.98;;
31336;SDS011;22846;42.654;23.314;2023-10-13T14:54:12;2.70;;;2.22;;
31336;SDS011;22846;42.654;23.314;2023-10-13T14:56:39;2.60;;;2.33;;
31336;SDS011;22846;42.654;23.314;2023-10-13T14:59:07;2.70;;;2.10;;
31336;SDS011;22846;42.654;23.314;2023-10-13T15:01:32;2.75;;;2.15;;
31336;SDS011;22846;42.654;23.314;2023-10-13T15:03:58;2.95;;;2.22;;
31336;SDS011;22846;42.654;23.314;2023-10-13T15:06:24;2.17;;;1.90;;
31336;SDS011;22846;42.654;23.314;2023-10-13T15:08:54;2.67;;;2.20;;
31336;SDS011;22846;42.654;23.314;2023-10-13T15:11:24;2.65;;;2.00;;
31336;SDS011;22846;42.654;23.314;2023-10-13T15:14:01;3.08;;;1.90;;